sensor_id;sensor_type;location;lat;lon;timestamp;pressure;altitude;pressure_sealevel;temperature;humidity
59110;BME280;44895;47.438;18.978;2024-02-21T00:01:29;100878.91;;;7.47;100.00
59110;BME280;44895;47.438;18.978;2024-02-21T00:04:33;100876.97;;;7.42;100.00
59110;BME280;44895;47.438;18.978;2024-02-21T00:07:37;100874.25;;;7.42;100.00
59110;BME280;44895;47.438;18.978;2024-02-21T00:10:40;100875.91;;;7.43;100.00
59110;BME280;44895;47.438;18.978;2024-02-21T00:13:44;100876.16;;;7.42;100.00
59110;BME280;44895;47.438;18.978;2024-02-21T00:16:48;100867.03;;;7.48;100.00
59110;BME280;44895;47.438;18.978;2024-02-21T00:19:52;100863.53;;;7.25;100.00
59110;BME280;44895;47.438;18.978;2024-02-21T00:22:56;100852.03;;;7.35;100.00
59110;BME280;44895;47.438;18.978;2024-02-21T00:25:59;100838.75;;;7.28;100.00
59110;BME280;44895;47.438;18.978;2024-02-21T00:29:03;100853.53;;;7.48;100.00
59110;BME280;44895;47.438;18.978;2024-02-21T00:32:06;100846.28;;;7.54;100.00
59110;BME280;44895;47.438;18.978;2024-02-21T00:35:10;100850.19;;;7.63;100.00
59110;BME280;44895;47.438;18.978;2024-02-21T00:38:14;100835.59;;;7.64;100.00
59110;BME280;44895;47.438;18.978;2024-02-21T00:41:18;100829.66;;;7.40;100.00
59110;BME280;44895;47.438;18.978;2024-02-21T00:44:21;100834.91;;;7.51;100.00
59110;BME280;44895;47.438;18.978;2024-02-21T00:47:25;100827.25;;;7.43;100.00
59110;BME280;44895;47.438;18.978;2024-02-21T00:50:29;100828.91;;;7.44;100.00
59110;BME280;44895;47.438;18.978;2024-02-21T00:53:33;100837.84;;;7.45;100.00
59110;BME280;44895;47.438;18.978;2024-02-21T00:56:36;100828.06;;;7.16;100.00
59110;BME280;44895;47.438;18.978;2024-02-21T00:59:40;100830.88;;;7.27;100.00
59110;BME280;44895;47.438;18.978;2024-02-21T01:02:45;100814.59;;;7.22;100.00
59110;BME280;44895;47.438;18.978;2024-02-21T01:05:49;100827.31;;;7.48;100.00
59110;BME280;44895;47.438;18.978;2024-02-21T01:08:52;100823.13;;;7.35;100.00
59110;BME280;44895;47.438;18.978;2024-02-21T01:11:56;100827.25;;;7.43;100.00
59110;BME280;44895;47.438;18.978;2024-02-21T01:15:00;100827.81;;;7.45;100.00
59110;BME280;44895;47.438;18.978;2024-02-21T01:18:04;100830.78;;;7.44;100.00
59110;BME280;44895;47.438;18.978;2024-02-21T01:21:08;100832.00;;;7.58;100.00
59110;BME280;44895;47.438;18.978;2024-02-21T01:24:13;100824.00;;;7.41;100.00
59110;BME280;44895;47.438;18.978;2024-02-21T01:27:18;100820.22;;;7.42;100.00
59110;BME280;44895;47.438;18.978;2024-02-21T01:30:22;100828.63;;;7.46;100.00
59110;BME280;44895;47.438;18.978;2024-02-21T01:33:26;100820.47;;;7.41;100.00
59110;BME280;44895;47.438;18.978;2024-02-21T01:36:29;100820.47;;;7.41;100.00
59110;BME280;44895;47.438;18.978;2024-02-21T01:39:33;100816.69;;;7.42;100.00
59110;BME280;44895;47.438;18.978;2024-02-21T01:42:40;100817.03;;;7.45;100.00
59110;BME280;44895;47.438;18.978;2024-02-21T01:45:47;100819.16;;;7.43;100.00
59110;BME280;44895;47.438;18.978;2024-02-21T01:48:52;100823.22;;;7.18;100.00
59110;BME280;44895;47.438;18.978;2024-02-21T01:51:56;100823.53;;;7.22;100.00
59110;BME280;44895;47.438;18.978;2024-02-21T01:54:59;100818.72;;;7.29;100.00
59110;BME280;44895;47.438;18.978;2024-02-21T01:58:03;100820.41;;;7.35;100.00
59110;BME280;44895;47.438;18.978;2024-02-21T02:01:07;100819.72;;;7.45;100.00
59110;BME280;44895;47.438;18.978;2024-02-21T02:04:12;100815.06;;;7.41;100.00
59110;BME280;44895;47.438;18.978;2024-02-21T02:07:15;100815.31;;;7.39;100.00
59110;BME280;44895;47.438;18.978;2024-02-21T02:10:19;100811.47;;;7.30;100.00
59110;BME280;44895;47.438;18.978;2024-02-21T02:13:23;100798.28;;;7.11;100.00
59110;BME280;44895;47.438;18.978;2024-02-21T02:16:27;100803.53;;;7.23;100.00
59110;BME280;44895;47.438;18.978;2024-02-21T02:19:31;100810.41;;;7.31;100.00
59110;BME280;44895;47.438;18.978;2024-02-21T02:22:36;100812.31;;;7.35;100.00
59110;BME280;44895;47.438;18.978;2024-02-21T02:25:40;100807.22;;;7.39;100.00
59110;BME280;44895;47.438;18.978;2024-02-21T02:28:44;100818.56;;;7.36;100.00
59110;BME280;44895;47.438;18.978;2024-02-21T02:31:49;100815.22;;;7.29;100.00
59110;BME280;44895;47.438;18.978;2024-02-21T02:34:53;100811.47;;;7.30;100.00
59110;BME280;44895;47.438;18.978;2024-02-21T02:37:56;100812.41;;;7.18;100.00
59110;BME280;44895;47.438;18.978;2024-02-21T02:40:59;100810.41;;;7.09;100.00
59110;BME280;44895;47.438;18.978;2024-02-21T02:44:03;100807.75;;;7.14;100.00
59110;BME280;44895;47.438;18.978;2024-02-21T02:47:08;100808.72;;;7.02;100.00
59110;BME280;44895;47.438;18.978;2024-02-21T02:50:12;100807.66;;;7.04;100.00
59110;BME280;44895;47.438;18.978;2024-02-21T02:53:15;100812.53;;;7.07;100.00
59110;BME280;44895;47.438;18.978;2024-02-21T02:56:19;100814.75;;;7.10;100.00
59110;BME280;44895;47.438;18.978;2024-02-21T02:59:23;100799.84;;;7.07;100.00
59110;BME280;44895;47.438;18.978;2024-02-21T03:02:26;100814.22;;;7.13;100.00
59110;BME280;44895;47.438;18.978;2024-02-21T03:05:30;100816.16;;;6.95;100.00
59110;BME280;44895;47.438;18.978;2024-02-21T03:08:34;100813.66;;;6.89;100.00
59110;BME280;44895;47.438;18.978;2024-02-21T03:11:38;100821.84;;;6.94;100.00
59110;BME280;44895;47.438;18.978;2024-02-21T03:14:44;100813.91;;;7.09;100.00
59110;BME280;44895;47.438;18.978;2024-02-21T03:17:47;100799.97;;;6.95;100.00
59110;BME280;44895;47.438;18.978;2024-02-21T03:20:51;100808.22;;;6.83;100.00
59110;BME280;44895;47.438;18.978;2024-02-21T03:23:55;100802.88;;;6.89;100.00
59110;BME280;44895;47.438;18.978;2024-02-21T03:26:59;100816.25;;;6.78;100.00
59110;BME280;44895;47.438;18.978;2024-02-21T03:30:03;100819.75;;;6.79;100.00
59110;BME280;44895;47.438;18.978;2024-02-21T03:33:10;100800.03;;;6.78;100.00
59110;BME280;44895;47.438;18.978;2024-02-21T03:36:14;100816.19;;;6.73;100.00
59110;BME280;44895;47.438;18.978;2024-02-21T03:39:19;100822.28;;;6.85;100.00
59110;BME280;44895;47.438;18.978;2024-02-21T03:42:22;100831.25;;;6.69;100.00
59110;BME280;44895;47.438;18.978;2024-02-21T03:45:26;100824.03;;;6.75;100.00
59110;BME280;44895;47.438;18.978;2024-02-21T03:48:30;100827.44;;;6.87;100.00
59110;BME280;44895;47.438;18.978;2024-02-21T03:51:33;100830.47;;;6.74;100.00
59110;BME280;44895;47.438;18.978;2024-02-21T03:54:37;100827.69;;;6.85;100.00
59110;BME280;44895;47.438;18.978;2024-02-21T03:57:41;100821.19;;;6.64;100.00
59110;BME280;44895;47.438;18.978;2024-02-21T04:00:45;100836.72;;;6.74;100.00
59110;BME280;44895;47.438;18.978;2024-02-21T04:03:48;100835.09;;;6.56;100.00
59110;BME280;44895;47.438;18.978;2024-02-21T04:06:52;100824.00;;;6.52;100.00
59110;BME280;44895;47.438;18.978;2024-02-21T04:09:56;100839.94;;;6.54;100.00
59110;BME280;44895;47.438;18.978;2024-02-21T04:12:59;100834.69;;;6.64;100.00
59110;BME280;44895;47.438;18.978;2024-02-21T04:16:04;100842.19;;;6.79;100.00
59110;BME280;44895;47.438;18.978;2024-02-21T04:19:09;100825.72;;;6.59;100.00
59110;BME280;44895;47.438;18.978;2024-02-21T04:22:13;100831.94;;;6.42;100.00
59110;BME280;44895;47.438;18.978;2024-02-21T04:25:17;100834.88;;;6.41;100.00
59110;BME280;44895;47.438;18.978;2024-02-21T04:28:20;100837.34;;;6.25;100.00
59110;BME280;44895;47.438;18.978;2024-02-21T04:31:24;100832.53;;;6.10;100.00
59110;BME280;44895;47.438;18.978;2024-02-21T04:34:28;100828.53;;;6.13;100.00
59110;BME280;44895;47.438;18.978;2024-02-21T04:37:32;100838.16;;;6.26;100.00
59110;BME280;44895;47.438;18.978;2024-02-21T04:40:35;100838.97;;;6.09;100.00
59110;BME280;44895;47.438;18.978;2024-02-21T04:43:39;100837.28;;;6.03;100.00
59110;BME280;44895;47.438;18.978;2024-02-21T04:46:43;100832.16;;;5.90;100.00
59110;BME280;44895;47.438;18.978;2024-02-21T04:49:46;100835.66;;;6.02;100.00
59110;BME280;44895;47.438;18.978;2024-02-21T04:52:50;100825.22;;;5.77;100.00
59110;BME280;44895;47.438;18.978;2024-02-21T04:55:54;100826.66;;;5.67;100.00
59110;BME280;44895;47.438;18.978;2024-02-21T04:58:58;100817.84;;;5.72;100.00
59110;BME280;44895;47.438;18.978;2024-02-21T05:02:02;100827.00;;;5.71;100.00
59110;BME280;44895;47.438;18.978;2024-02-21T05:05:06;100829.44;;;5.55;100.00
59110;BME280;44895;47.438;18.978;2024-02-21T05:08:10;100830.97;;;5.51;100.00
59110;BME280;44895;47.438;18.978;2024-02-21T05:11:14;100831.13;;;5.45;100.00
59110;BME280;44895;47.438;18.978;2024-02-21T05:14:17;100831.25;;;5.38;100.00
59110;BME280;44895;47.438;18.978;2024-02-21T05:17:21;100825.00;;;5.49;100.00
59110;BME280;44895;47.438;18.978;2024-02-21T05:20:24;100820.56;;;5.43;100.00
59110;BME280;44895;47.438;18.978;2024-02-21T05:23:28;100826.16;;;5.25;100.00
59110;BME280;44895;47.438;18.978;2024-02-21T05:26:32;100820.69;;;4.43;100.00
59110;BME280;44895;47.438;18.978;2024-02-21T05:29:36;100837.88;;;4.66;100.00
59110;BME280;44895;47.438;18.978;2024-02-21T05:32:39;100842.56;;;4.35;100.00
59110;BME280;44895;47.438;18.978;2024-02-21T05:35:43;100837.28;;;4.28;100.00
59110;BME280;44895;47.438;18.978;2024-02-21T05:38:47;100833.09;;;4.44;100.00
59110;BME280;44895;47.438;18.978;2024-02-21T05:41:51;100840.31;;;4.67;100.00
59110;BME280;44895;47.438;18.978;2024-02-21T05:44:54;100835.31;;;4.59;100.00
59110;BME280;44895;47.438;18.978;2024-02-21T05:47:58;100849.19;;;4.80;100.00
59110;BME280;44895;47.438;18.978;2024-02-21T05:51:03;100842.09;;;4.62;100.00
59110;BME280;44895;47.438;18.978;2024-02-21T05:54:07;100847.56;;;4.79;100.00
59110;BME280;44895;47.438;18.978;2024-02-21T05:57:11;100846.97;;;5.00;100.00
59110;BME280;44895;47.438;18.978;2024-02-21T06:00:15;100856.31;;;4.98;100.00
59110;BME280;44895;47.438;18.978;2024-02-21T06:03:19;100855.47;;;5.09;100.00
59110;BME280;44895;47.438;18.978;2024-02-21T06:06:23;100844.38;;;5.05;100.00
59110;BME280;44895;47.438;18.978;2024-02-21T06:09:27;100851.13;;;5.20;100.00
59110;BME280;44895;47.438;18.978;2024-02-21T06:12:30;100842.31;;;5.25;100.00
59110;BME280;44895;47.438;18.978;2024-02-21T06:15:34;100835.75;;;5.20;100.00
59110;BME280;44895;47.438;18.978;2024-02-21T06:18:38;100848.00;;;5.40;100.00
59110;BME280;44895;47.438;18.978;2024-02-21T06:21:42;100843.94;;;5.54;100.00
59110;BME280;44895;47.438;18.978;2024-02-21T06:24:45;100838.63;;;5.71;100.00
59110;BME280;44895;47.438;18.978;2024-02-21T06:27:49;100847.22;;;5.85;100.00
59110;BME280;44895;47.438;18.978;2024-02-21T06:30:52;100857.84;;;5.92;100.00
59110;BME280;44895;47.438;18.978;2024-02-21T06:33:56;100854.38;;;5.80;100.00
59110;BME280;44895;47.438;18.978;2024-02-21T06:37:00;100855.75;;;5.82;100.00
59110;BME280;44895;47.438;18.978;2024-02-21T06:40:04;100854.13;;;5.81;100.00
59110;BME280;44895;47.438;18.978;2024-02-21T06:43:08;100859.63;;;5.86;100.00
59110;BME280;44895;47.438;18.978;2024-02-21T06:46:25;100849.88;;;6.14;100.00
59110;BME280;44895;47.438;18.978;2024-02-21T06:49:28;100864.75;;;6.34;100.00
59110;BME280;44895;47.438;18.978;2024-02-21T06:52:32;100870.03;;;6.46;100.00
59110;BME280;44895;47.438;18.978;2024-02-21T06:55:36;100872.53;;;7.09;100.00
59110;BME280;44895;47.438;18.978;2024-02-21T06:58:40;100867.09;;;7.53;100.00
59110;BME280;44895;47.438;18.978;2024-02-21T07:01:53;100868.38;;;7.45;100.00
59110;BME280;44895;47.438;18.978;2024-02-21T07:04:56;100863.59;;;7.53;100.00
59110;BME280;44895;47.438;18.978;2024-02-21T07:08:00;100861.09;;;7.73;100.00
59110;BME280;44895;47.438;18.978;2024-02-21T07:11:04;100863.25;;;8.04;100.00
59110;BME280;44895;47.438;18.978;2024-02-21T07:14:08;100871.53;;;7.64;100.00
59110;BME280;44895;47.438;18.978;2024-02-21T07:17:11;100875.09;;;7.70;100.00
59110;BME280;44895;47.438;18.978;2024-02-21T07:20:15;100879.44;;;7.71;100.00
59110;BME280;44895;47.438;18.978;2024-02-21T07:23:19;100883.47;;;7.96;100.00
59110;BME280;44895;47.438;18.978;2024-02-21T07:26:22;100877.41;;;9.55;100.00
59110;BME280;44895;47.438;18.978;2024-02-21T07:29:26;100872.00;;;10.84;100.00
59110;BME280;44895;47.438;18.978;2024-02-21T07:32:30;100871.09;;;12.09;100.00
59110;BME280;44895;47.438;18.978;2024-02-21T07:35:33;100872.88;;;11.39;100.00
59110;BME280;44895;47.438;18.978;2024-02-21T07:38:37;100863.81;;;11.99;100.00
59110;BME280;44895;47.438;18.978;2024-02-21T07:41:40;100870.03;;;11.60;100.00
59110;BME280;44895;47.438;18.978;2024-02-21T07:44:46;100865.91;;;12.13;100.00
59110;BME280;44895;47.438;18.978;2024-02-21T07:47:50;100868.72;;;13.10;100.00
59110;BME280;44895;47.438;18.978;2024-02-21T07:50:54;100869.50;;;13.34;100.00
59110;BME280;44895;47.438;18.978;2024-02-21T07:53:58;100869.78;;;13.57;100.00
59110;BME280;44895;47.438;18.978;2024-02-21T07:57:02;100858.72;;;12.81;100.00
59110;BME280;44895;47.438;18.978;2024-02-21T08:00:06;100865.25;;;12.80;100.00
59110;BME280;44895;47.438;18.978;2024-02-21T08:03:19;100869.41;;;13.83;97.03
59110;BME280;44895;47.438;18.978;2024-02-21T08:06:24;100859.75;;;13.09;100.00
59110;BME280;44895;47.438;18.978;2024-02-21T08:09:28;100862.41;;;12.90;100.00
59110;BME280;44895;47.438;18.978;2024-02-21T08:12:32;100848.16;;;13.80;93.76
59110;BME280;44895;47.438;18.978;2024-02-21T08:15:36;100851.25;;;13.54;93.21
59110;BME280;44895;47.438;18.978;2024-02-21T08:18:44;100856.03;;;14.47;87.89
59110;BME280;44895;47.438;18.978;2024-02-21T08:21:47;100848.88;;;15.21;83.18
59110;BME280;44895;47.438;18.978;2024-02-21T08:24:51;100843.94;;;14.21;82.88
59110;BME280;44895;47.438;18.978;2024-02-21T08:27:59;100839.06;;;13.84;86.31
59110;BME280;44895;47.438;18.978;2024-02-21T08:31:02;100846.25;;;13.42;87.32
59110;BME280;44895;47.438;18.978;2024-02-21T08:34:07;100859.03;;;12.74;93.90
59110;BME280;44895;47.438;18.978;2024-02-21T08:37:10;100877.91;;;12.41;100.00
59110;BME280;44895;47.438;18.978;2024-02-21T08:40:15;100875.56;;;12.29;100.00
59110;BME280;44895;47.438;18.978;2024-02-21T08:43:21;100872.56;;;11.96;100.00
59110;BME280;44895;47.438;18.978;2024-02-21T08:46:24;100867.13;;;11.91;100.00
59110;BME280;44895;47.438;18.978;2024-02-21T08:49:28;100874.41;;;12.35;100.00
59110;BME280;44895;47.438;18.978;2024-02-21T08:52:32;100859.94;;;12.05;100.00
59110;BME280;44895;47.438;18.978;2024-02-21T08:55:36;100867.88;;;12.36;100.00
59110;BME280;44895;47.438;18.978;2024-02-21T08:58:40;100861.16;;;12.29;100.00
59110;BME280;44895;47.438;18.978;2024-02-21T09:01:43;100863.78;;;12.04;100.00
59110;BME280;44895;47.438;18.978;2024-02-21T09:04:47;100865.47;;;12.30;100.00
59110;BME280;44895;47.438;18.978;2024-02-21T09:07:51;100866.06;;;11.82;100.00
59110;BME280;44895;47.438;18.978;2024-02-21T09:10:55;100863.22;;;12.07;100.00
59110;BME280;44895;47.438;18.978;2024-02-21T09:13:58;100857.03;;;11.97;100.00
59110;BME280;44895;47.438;18.978;2024-02-21T09:17:02;100851.28;;;12.03;100.00
59110;BME280;44895;47.438;18.978;2024-02-21T09:20:07;100860.28;;;11.54;100.00
59110;BME280;44895;47.438;18.978;2024-02-21T09:23:11;100848.97;;;16.26;79.64
59110;BME280;44895;47.438;18.978;2024-02-21T09:26:15;100835.91;;;18.44;62.17
59110;BME280;44895;47.438;18.978;2024-02-21T09:29:20;100838.94;;;20.50;54.12
59110;BME280;44895;47.438;18.978;2024-02-21T09:32:24;100837.13;;;20.08;51.89
59110;BME280;44895;47.438;18.978;2024-02-21T09:35:28;100835.69;;;17.57;54.79
59110;BME280;44895;47.438;18.978;2024-02-21T09:38:31;100842.19;;;16.55;59.17
59110;BME280;44895;47.438;18.978;2024-02-21T09:41:36;100850.66;;;14.89;68.43
59110;BME280;44895;47.438;18.978;2024-02-21T09:44:45;100857.75;;;13.96;77.82
59110;BME280;44895;47.438;18.978;2024-02-21T09:51:23;100846.03;;;13.14;86.91
59110;BME280;44895;47.438;18.978;2024-02-21T09:54:29;100845.59;;;13.50;90.94
59110;BME280;44895;47.438;18.978;2024-02-21T09:57:34;100850.22;;;13.50;86.83
59110;BME280;44895;47.438;18.978;2024-02-21T10:00:38;100849.28;;;13.41;86.39
59110;BME280;44895;47.438;18.978;2024-02-21T10:03:42;100844.13;;;13.39;85.13
59110;BME280;44895;47.438;18.978;2024-02-21T10:06:47;100838.78;;;13.29;85.97
59110;BME280;44895;47.438;18.978;2024-02-21T10:10:01;100825.06;;;12.91;92.31
59110;BME280;44895;47.438;18.978;2024-02-21T10:13:04;100833.44;;;13.18;88.67
59110;BME280;44895;47.438;18.978;2024-02-21T10:16:08;100826.69;;;12.92;91.23
59110;BME280;44895;47.438;18.978;2024-02-21T10:19:19;100826.31;;;12.98;93.36
59110;BME280;44895;47.438;18.978;2024-02-21T10:22:23;100796.41;;;12.93;94.74
59110;BME280;44895;47.438;18.978;2024-02-21T10:25:29;100819.03;;;12.69;95.97
59110;BME280;44895;47.438;18.978;2024-02-21T10:28:34;100808.50;;;12.87;94.34
59110;BME280;44895;47.438;18.978;2024-02-21T10:31:38;100811.81;;;13.03;93.77
59110;BME280;44895;47.438;18.978;2024-02-21T10:34:42;100802.22;;;12.86;91.50
59110;BME280;44895;47.438;18.978;2024-02-21T10:37:46;100809.31;;;13.07;90.89
59110;BME280;44895;47.438;18.978;2024-02-21T10:40:50;100802.41;;;13.14;87.83
59110;BME280;44895;47.438;18.978;2024-02-21T10:43:56;100796.59;;;13.40;87.95
59110;BME280;44895;47.438;18.978;2024-02-21T10:47:07;100789.25;;;13.41;86.54
59110;BME280;44895;47.438;18.978;2024-02-21T10:50:12;100781.50;;;13.29;84.70
59110;BME280;44895;47.438;18.978;2024-02-21T10:53:29;100781.69;;;13.32;81.83
59110;BME280;44895;47.438;18.978;2024-02-21T10:56:38;100777.78;;;13.19;87.51
59110;BME280;44895;47.438;18.978;2024-02-21T10:59:44;100768.44;;;13.45;84.84
59110;BME280;44895;47.438;18.978;2024-02-21T11:02:48;100766.00;;;13.95;84.34
59110;BME280;44895;47.438;18.978;2024-02-21T11:05:53;100753.06;;;14.01;82.24
59110;BME280;44895;47.438;18.978;2024-02-21T11:09:01;100749.53;;;14.14;79.11
59110;BME280;44895;47.438;18.978;2024-02-21T11:12:06;100741.56;;;14.18;78.80
59110;BME280;44895;47.438;18.978;2024-02-21T11:15:11;100728.97;;;13.56;74.32
59110;BME280;44895;47.438;18.978;2024-02-21T11:18:23;100729.50;;;13.58;74.77
59110;BME280;44895;47.438;18.978;2024-02-21T11:21:33;100728.22;;;13.69;76.24
59110;BME280;44895;47.438;18.978;2024-02-21T11:24:38;100717.06;;;13.99;75.62
59110;BME280;44895;47.438;18.978;2024-02-21T11:27:46;100722.94;;;13.59;76.52
59110;BME280;44895;47.438;18.978;2024-02-21T11:30:50;100710.69;;;13.57;77.97
59110;BME280;44895;47.438;18.978;2024-02-21T11:33:54;100717.72;;;13.77;74.20
59110;BME280;44895;47.438;18.978;2024-02-21T11:36:58;100691.25;;;13.91;74.27
59110;BME280;44895;47.438;18.978;2024-02-21T11:40:03;100708.63;;;13.81;72.74
59110;BME280;44895;47.438;18.978;2024-02-21T11:43:07;100702.97;;;13.78;72.63
59110;BME280;44895;47.438;18.978;2024-02-21T11:46:11;100710.09;;;13.60;75.09
59110;BME280;44895;47.438;18.978;2024-02-21T11:49:14;100708.19;;;13.22;74.55
59110;BME280;44895;47.438;18.978;2024-02-21T11:52:18;100705.53;;;13.55;76.50
59110;BME280;44895;47.438;18.978;2024-02-21T11:55:24;100697.44;;;13.31;76.13
59110;BME280;44895;47.438;18.978;2024-02-21T11:58:27;100696.13;;;13.61;75.65
59110;BME280;44895;47.438;18.978;2024-02-21T12:01:31;100690.94;;;13.46;73.31
59110;BME280;44895;47.438;18.978;2024-02-21T12:04:36;100694.63;;;13.69;75.38
59110;BME280;44895;47.438;18.978;2024-02-21T12:07:41;100688.47;;;13.63;75.64
59110;BME280;44895;47.438;18.978;2024-02-21T12:10:45;100683.09;;;13.58;72.96
59110;BME280;44895;47.438;18.978;2024-02-21T12:14:01;100671.16;;;13.54;71.70
59110;BME280;44895;47.438;18.978;2024-02-21T12:17:08;100672.63;;;13.93;70.67
59110;BME280;44895;47.438;18.978;2024-02-21T12:20:12;100671.84;;;13.27;66.25
59110;BME280;44895;47.438;18.978;2024-02-21T12:23:18;100666.50;;;13.02;67.53
59110;BME280;44895;47.438;18.978;2024-02-21T12:26:22;100668.00;;;12.95;67.29
59110;BME280;44895;47.438;18.978;2024-02-21T12:29:26;100668.84;;;12.71;68.61
59110;BME280;44895;47.438;18.978;2024-02-21T12:32:29;100664.97;;;12.77;69.45
59110;BME280;44895;47.438;18.978;2024-02-21T12:35:33;100670.56;;;12.86;68.62
59110;BME280;44895;47.438;18.978;2024-02-21T12:38:36;100655.38;;;12.80;68.78
59110;BME280;44895;47.438;18.978;2024-02-21T12:41:41;100662.31;;;12.91;68.04
59110;BME280;44895;47.438;18.978;2024-02-21T12:44:46;100654.84;;;12.59;68.14
59110;BME280;44895;47.438;18.978;2024-02-21T12:47:50;100660.16;;;12.69;68.58
59110;BME280;44895;47.438;18.978;2024-02-21T12:50:53;100648.47;;;12.68;70.40
59110;BME280;44895;47.438;18.978;2024-02-21T12:53:57;100639.91;;;12.56;71.75
59110;BME280;44895;47.438;18.978;2024-02-21T12:57:02;100639.31;;;12.97;73.58
59110;BME280;44895;47.438;18.978;2024-02-21T13:00:07;100643.94;;;12.97;74.49
59110;BME280;44895;47.438;18.978;2024-02-21T13:03:12;100630.53;;;13.00;72.97
59110;BME280;44895;47.438;18.978;2024-02-21T13:06:16;100625.59;;;13.02;71.27
59110;BME280;44895;47.438;18.978;2024-02-21T13:09:19;100630.94;;;13.27;71.50
59110;BME280;44895;47.438;18.978;2024-02-21T13:12:23;100626.09;;;13.04;71.96
59110;BME280;44895;47.438;18.978;2024-02-21T13:15:27;100630.19;;;12.88;67.80
59110;BME280;44895;47.438;18.978;2024-02-21T13:18:31;100621.84;;;12.60;67.33
59110;BME280;44895;47.438;18.978;2024-02-21T13:21:36;100618.00;;;12.23;67.51
59110;BME280;44895;47.438;18.978;2024-02-21T13:24:39;100609.69;;;12.33;70.45
59110;BME280;44895;47.438;18.978;2024-02-21T13:27:44;100610.66;;;12.43;70.79
59110;BME280;44895;47.438;18.978;2024-02-21T13:30:47;100612.13;;;12.35;71.89
59110;BME280;44895;47.438;18.978;2024-02-21T13:33:51;100605.00;;;12.39;73.22
59110;BME280;44895;47.438;18.978;2024-02-21T13:36:55;100602.19;;;12.25;73.17
59110;BME280;44895;47.438;18.978;2024-02-21T13:39:59;100598.31;;;12.07;73.46
59110;BME280;44895;47.438;18.978;2024-02-21T13:43:02;100593.44;;;12.04;73.59
59110;BME280;44895;47.438;18.978;2024-02-21T13:46:06;100587.47;;;12.02;73.52
59110;BME280;44895;47.438;18.978;2024-02-21T13:49:13;100593.69;;;12.07;73.49
59110;BME280;44895;47.438;18.978;2024-02-21T13:52:17;100586.94;;;12.24;74.87
59110;BME280;44895;47.438;18.978;2024-02-21T13:55:23;100573.59;;;12.03;75.96
59110;BME280;44895;47.438;18.978;2024-02-21T13:58:29;100582.72;;;12.13;76.17
59110;BME280;44895;47.438;18.978;2024-02-21T14:01:33;100576.78;;;12.30;75.10
59110;BME280;44895;47.438;18.978;2024-02-21T14:04:37;100568.00;;;12.14;74.89
59110;BME280;44895;47.438;18.978;2024-02-21T14:07:40;100574.94;;;12.25;76.65
59110;BME280;44895;47.438;18.978;2024-02-21T14:10:45;100578.06;;;12.13;74.87
59110;BME280;44895;47.438;18.978;2024-02-21T14:13:49;100584.69;;;12.07;71.68
59110;BME280;44895;47.438;18.978;2024-02-21T14:16:52;100580.44;;;12.01;71.98
59110;BME280;44895;47.438;18.978;2024-02-21T14:19:56;100574.84;;;12.11;72.69
59110;BME280;44895;47.438;18.978;2024-02-21T14:23:00;100575.97;;;12.29;72.45
59110;BME280;44895;47.438;18.978;2024-02-21T14:26:04;100571.63;;;12.28;73.59
59110;BME280;44895;47.438;18.978;2024-02-21T14:29:10;100572.72;;;12.27;73.60
59110;BME280;44895;47.438;18.978;2024-02-21T14:32:13;100569.75;;;12.04;71.66
59110;BME280;44895;47.438;18.978;2024-02-21T14:35:16;100560.34;;;12.16;73.31
59110;BME280;44895;47.438;18.978;2024-02-21T14:38:20;100563.81;;;12.21;76.74
59110;BME280;44895;47.438;18.978;2024-02-21T14:41:24;100555.16;;;11.95;76.20
59110;BME280;44895;47.438;18.978;2024-02-21T14:44:28;100554.50;;;11.79;76.10
59110;BME280;44895;47.438;18.978;2024-02-21T14:47:32;100555.63;;;11.78;77.65
59110;BME280;44895;47.438;18.978;2024-02-21T14:50:37;100548.88;;;11.70;76.62
59110;BME280;44895;47.438;18.978;2024-02-21T14:53:40;100554.09;;;11.91;76.20
59110;BME280;44895;47.438;18.978;2024-02-21T14:56:44;100553.06;;;11.87;75.23
59110;BME280;44895;47.438;18.978;2024-02-21T14:59:49;100549.75;;;11.90;76.77
59110;BME280;44895;47.438;18.978;2024-02-21T15:02:57;100544.50;;;11.74;75.91
59110;BME280;44895;47.438;18.978;2024-02-21T15:06:01;100545.41;;;11.89;75.49
59110;BME280;44895;47.438;18.978;2024-02-21T15:09:05;100533.72;;;11.88;77.51
59110;BME280;44895;47.438;18.978;2024-02-21T15:12:11;100526.03;;;11.96;74.99
59110;BME280;44895;47.438;18.978;2024-02-21T15:15:14;100526.91;;;11.91;73.99
59110;BME280;44895;47.438;18.978;2024-02-21T15:18:18;100529.63;;;11.91;78.56
59110;BME280;44895;47.438;18.978;2024-02-21T15:21:22;100515.78;;;11.87;77.32
59110;BME280;44895;47.438;18.978;2024-02-21T15:24:26;100532.06;;;11.68;84.22
59110;BME280;44895;47.438;18.978;2024-02-21T15:27:29;100530.97;;;11.69;79.92
59110;BME280;44895;47.438;18.978;2024-02-21T15:30:33;100535.94;;;11.62;79.14
59110;BME280;44895;47.438;18.978;2024-02-21T15:33:37;100520.84;;;11.51;86.65
59110;BME280;44895;47.438;18.978;2024-02-21T15:36:41;100536.53;;;11.30;84.11
59110;BME280;44895;47.438;18.978;2024-02-21T15:39:45;100513.56;;;11.17;80.92
59110;BME280;44895;47.438;18.978;2024-02-21T15:42:49;100518.78;;;11.37;81.28
59110;BME280;44895;47.438;18.978;2024-02-21T15:45:54;100519.25;;;11.20;83.85
59110;BME280;44895;47.438;18.978;2024-02-21T15:48:58;100511.03;;;10.96;92.75
59110;BME280;44895;47.438;18.978;2024-02-21T15:52:01;100523.34;;;10.88;99.79